Time;durP1;ratioP1;P1;durP2;ratioP2;P2;SDS_P1;SDS_P2;PMS_P1;PMS_P2;Temp;Humidity;BMP_temperature;BMP_pressure;BME280_temperature;BME280_humidity;BME280_pressure;Samples;Min_cycle;Max_cycle;Signal;HPM_P1;HPM_P2
2022/09/25 00:00:43;;;;;;;4.93;2.95;;;;;;;24.17;50.30;101329.28;5089822;28;20047;-51
2022/09/25 00:03:11;;;;;;;5.45;3.00;;;;;;;24.52;49.70;101337.50;5092428;28;20028;-53
2022/09/25 00:05:38;;;;;;;6.00;3.63;;;;;;;24.36;49.80;101334.88;5092208;28;20024;-52
2022/09/25 00:08:05;;;;;;;4.68;3.58;;;;;;;24.41;50.45;101325.81;5091004;28;20032;-53
2022/09/25 00:10:32;;;;;;;6.38;3.47;;;;;;;24.04;50.80;101332.66;5092380;28;20118;-52
2022/09/25 00:12:58;;;;;;;6.32;3.78;;;;;;;24.02;51.44;101331.28;5091938;28;20060;-53
2022/09/25 00:15:25;;;;;;;5.88;3.60;;;;;;;24.03;50.93;101335.66;5091847;28;20020;-53
2022/09/25 00:17:51;;;;;;;7.95;3.75;;;;;;;23.96;51.52;101336.78;5093371;28;20031;-51
2022/09/25 00:20:22;;;;;;;8.02;4.07;;;;;;;24.10;51.52;101327.97;5101054;28;20044;-51
2022/09/25 00:22:50;;;;;;;6.00;3.70;;;;;;;23.63;51.88;101327.44;5092215;28;20453;-48
2022/09/25 00:25:16;;;;;;;5.80;3.47;;;;;;;23.45;52.16;101331.59;5091762;28;20032;-49
2022/09/25 00:27:44;;;;;;;5.22;3.80;;;;;;;23.73;52.58;101328.47;5095607;28;20022;-51
2022/09/25 00:30:13;;;;;;;8.55;4.43;;;;;;;23.60;52.72;101321.69;5089998;28;20035;-49
2022/09/25 00:32:40;;;;;;;6.25;4.38;;;;;;;23.37;53.67;101329.44;5079753;28;20064;-50
2022/09/25 00:35:07;;;;;;;7.70;4.25;;;;;;;23.34;53.97;101324.53;5103313;28;20383;-47
2022/09/25 00:37:35;;;;;;;8.60;3.97;;;;;;;23.07;54.75;101318.63;5100398;28;20028;-47
2022/09/25 00:40:01;;;;;;;5.40;4.68;;;;;;;22.94;55.44;101319.22;5104131;28;20040;-47
2022/09/25 00:42:28;;;;;;;6.97;4.13;;;;;;;22.77;55.36;101325.78;5089802;28;20372;-49
2022/09/25 00:45:06;;;;;;;6.95;4.45;;;;;;;22.77;55.58;101317.59;5088058;28;20259;-48
2022/09/25 00:47:37;;;;;;;8.43;4.80;;;;;;;22.86;55.82;101318.66;5088575;28;20028;-50
2022/09/25 00:50:19;;;;;;;9.52;4.93;;;;;;;22.75;55.83;101325.22;5092150;28;20020;-51
2022/09/25 00:52:46;;;;;;;7.38;4.88;;;;;;;22.73;55.97;101323.88;5090831;28;20062;-48
2022/09/25 00:55:14;;;;;;;10.65;5.32;;;;;;;22.64;56.09;101326.31;5091655;28;20031;-51
2022/09/25 00:57:45;;;;;;;7.18;4.70;;;;;;;22.24;57.10;101325.25;5091373;28;20028;-51
2022/09/25 01:00:12;;;;;;;6.95;4.88;;;;;;;22.27;57.29;101318.47;5092045;28;20040;-51
2022/09/25 01:02:43;;;;;;;7.07;5.22;;;;;;;21.81;58.49;101321.88;5091480;28;20016;-50
2022/09/25 01:05:14;;;;;;;7.97;4.63;;;;;;;21.83;58.26;101324.38;5080563;28;20050;-48
2022/09/25 01:07:44;;;;;;;8.32;5.43;;;;;;;22.09;57.53;101317.84;5091530;28;20036;-51
2022/09/25 01:10:11;;;;;;;8.10;4.47;;;;;;;22.04;58.13;101330.66;5089075;28;20508;-48
2022/09/25 01:12:42;;;;;;;8.18;5.00;;;;;;;21.86;58.63;101332.81;5074429;28;20178;-50
2022/09/25 01:15:11;;;;;;;9.32;5.35;;;;;;;21.57;60.04;101326.19;5091355;28;20080;-51
2022/09/25 01:17:43;;;;;;;7.90;5.47;;;;;;;21.42;60.28;101326.13;5085553;28;20035;-51
2022/09/25 01:20:27;;;;;;;9.73;5.57;;;;;;;21.44;60.74;101326.72;5091449;28;20078;-51
2022/09/25 01:23:13;;;;;;;9.95;5.25;;;;;;;21.26;60.84;101322.50;5091116;28;20059;-50
2022/09/25 01:25:55;;;;;;;8.68;5.03;;;;;;;21.09;61.10;101317.25;5091289;28;20024;-51
2022/09/25 01:28:39;;;;;;;7.90;4.90;;;;;;;20.99;61.74;101315.31;5087226;28;20037;-51
2022/09/25 01:31:32;;;;;;;7.43;4.80;;;;;;;20.96;62.02;101318.53;5071275;28;20086;-51
2022/09/25 01:34:11;;;;;;;10.48;5.72;;;;;;;20.75;63.02;101328.47;5084722;28;20102;-51
2022/09/25 01:36:46;;;;;;;8.05;4.93;;;;;;;20.68;63.04;101319.72;5091165;28;20032;-50
2022/09/25 01:39:50;;;;;;;10.10;5.22;;;;;;;20.67;63.17;101330.88;5091445;28;20078;-48
2022/09/25 01:42:26;;;;;;;9.55;5.30;;;;;;;20.41;64.00;101332.56;5067893;28;20404;-50
2022/09/25 01:45:06;;;;;;;7.53;5.20;;;;;;;20.27;64.86;101330.28;5090688;28;20024;-51
2022/09/25 01:47:39;;;;;;;7.93;5.07;;;;;;;20.19;65.02;101333.44;5091534;28;20058;-52
2022/09/25 01:50:16;;;;;;;8.27;5.72;;;;;;;20.39;64.80;101337.44;5079420;28;20088;-50
2022/09/25 01:52:52;;;;;;;8.20;5.63;;;;;;;20.13;65.24;101333.66;5080921;28;20016;-51
2022/09/25 01:55:34;;;;;;;11.55;5.60;;;;;;;20.08;65.78;101334.44;5089920;28;20481;-51
2022/09/25 01:58:15;;;;;;;8.98;5.60;;;;;;;19.71;67.53;101340.59;5079802;28;20061;-51
2022/09/25 02:00:49;;;;;;;9.68;5.72;;;;;;;19.77;67.19;101338.75;5094612;28;20032;-50
2022/09/25 02:04:02;;;;;;;7.75;5.97;;;;;;;19.82;66.67;101335.25;5095338;28;20068;-50
2022/09/25 02:06:31;;;;;;;12.52;6.03;;;;;;;19.62;67.00;101331.25;5073953;28;20123;-51
2022/09/25 02:09:06;;;;;;;6.72;5.35;;;;;;;19.57;67.44;101339.28;5079854;28;20038;-50
2022/09/25 02:11:41;;;;;;;9.52;5.70;;;;;;;19.63;67.10;101351.88;5093354;28;20046;-49
2022/09/25 02:14:22;;;;;;;9.50;5.30;;;;;;;19.45;67.93;101341.34;5074000;28;20484;-51
2022/09/25 02:16:54;;;;;;;7.88;5.50;;;;;;;19.38;68.58;101346.94;5083954;28;20081;-50
2022/09/25 02:22:25;;;;;;;7.90;5.45;;;;;;;19.29;68.26;101348.44;5086759;28;20078;-51
2022/09/25 02:24:55;;;;;;;6.97;5.30;;;;;;;19.36;68.43;101353.69;5094141;28;20031;-50
2022/09/25 02:27:23;;;;;;;12.45;6.15;;;;;;;18.96;69.80;101355.59;5093716;28;20496;-51
2022/09/25 02:29:51;;;;;;;9.70;5.38;;;;;;;18.90;70.17;101359.31;5087265;28;20032;-51
2022/09/25 02:32:25;;;;;;;10.82;6.50;;;;;;;19.04;69.71;101357.06;5085639;28;20388;-51
2022/09/25 02:34:51;;;;;;;8.60;5.50;;;;;;;18.90;70.23;101355.78;5094541;28;20027;-51
2022/09/25 02:37:18;;;;;;;9.55;6.18;;;;;;;18.68;71.24;101367.38;5093826;28;20058;-51
2022/09/25 02:39:49;;;;;;;9.95;5.50;;;;;;;18.38;72.47;101358.72;5093840;28;20039;-51
2022/09/25 02:42:39;;;;;;;9.75;5.90;;;;;;;18.39;72.33;101363.06;5094051;28;20511;-50
2022/09/25 02:45:35;;;;;;;10.93;6.10;;;;;;;18.41;72.34;101372.59;5093809;28;20129;-50
2022/09/25 02:48:07;;;;;;;7.63;5.78;;;;;;;18.43;72.24;101375.06;5093156;28;20032;-51
2022/09/25 02:51:04;;;;;;;8.40;5.43;;;;;;;18.11;73.50;101377.50;5090128;28;20052;-50
2022/09/25 02:53:36;;;;;;;8.07;5.40;;;;;;;18.08;74.32;101381.50;5093637;28;20451;-50
2022/09/25 02:56:16;;;;;;;9.45;5.55;;;;;;;17.99;74.82;101377.53;5093474;28;20027;-49
2022/09/25 02:58:51;;;;;;;7.85;5.55;;;;;;;18.05;74.70;101386.59;5093750;28;20039;-49
2022/09/25 03:01:21;;;;;;;10.10;5.53;;;;;;;18.07;74.39;101387.16;5094027;28;20469;-50
2022/09/25 03:03:53;;;;;;;11.07;6.05;;;;;;;18.09;74.18;101388.53;5090306;28;20044;-50
2022/09/25 03:06:21;;;;;;;10.63;5.40;;;;;;;18.03;74.40;101392.22;5084593;28;20032;-50
2022/09/25 03:08:51;;;;;;;7.63;5.57;;;;;;;18.02;74.99;101398.72;5107468;28;20035;-50
2022/09/25 03:11:20;;;;;;;10.75;6.38;;;;;;;17.80;75.73;101405.84;5092525;28;20028;-51
2022/09/25 03:14:02;;;;;;;13.98;6.53;;;;;;;17.81;75.79;101404.78;5094836;28;20396;-50
2022/09/25 03:16:39;;;;;;;10.73;6.32;;;;;;;17.84;75.78;101413.25;5094835;28;20119;-51
2022/09/25 03:19:05;;;;;;;9.10;6.13;;;;;;;17.79;75.78;101417.75;5087949;28;20036;-50
2022/09/25 03:21:32;;;;;;;9.40;5.28;;;;;;;17.81;75.64;101419.16;5081117;28;20048;-48
2022/09/25 03:23:59;;;;;;;9.00;5.22;;;;;;;17.75;76.38;101430.13;5081573;28;20054;-50
2022/09/25 03:26:29;;;;;;;8.02;5.32;;;;;;;17.82;76.15;101425.38;5092175;28;20031;-48
2022/09/25 03:28:55;;;;;;;10.55;5.90;;;;;;;17.76;76.69;101431.75;5088522;28;20529;-55
2022/09/25 03:31:22;;;;;;;9.65;5.20;;;;;;;17.79;76.08;101432.13;5106944;28;20155;-50
2022/09/25 03:33:48;;;;;;;9.63;5.75;;;;;;;17.69;76.81;101434.56;5101846;28;20036;-48
2022/09/25 03:36:20;;;;;;;7.43;5.35;;;;;;;17.60;76.78;101433.28;5090719;28;20044;-49
2022/09/25 03:38:49;;;;;;;11.25;5.72;;;;;;;17.46;77.54;101438.16;5090847;28;20020;-50
2022/09/25 03:41:20;;;;;;;9.98;5.60;;;;;;;17.47;77.71;101447.09;5088492;28;20063;-50
2022/09/25 03:43:50;;;;;;;8.35;6.05;;;;;;;17.47;77.30;101447.09;5089840;28;20097;-50
2022/09/25 03:46:18;;;;;;;11.32;6.55;;;;;;;17.41;77.88;101449.69;5090981;28;20453;-49
2022/09/25 03:48:45;;;;;;;11.23;6.47;;;;;;;17.28;78.72;101449.09;5086006;28;20119;-48
2022/09/25 03:51:12;;;;;;;11.40;6.85;;;;;;;17.41;78.26;101452.38;5086731;28;20016;-50
2022/09/25 03:53:39;;;;;;;16.23;7.28;;;;;;;17.29;78.56;101448.03;5092727;28;20032;-50
2022/09/25 03:56:17;;;;;;;11.95;6.95;;;;;;;17.21;79.21;101445.69;5092753;28;20453;-48
2022/09/25 03:58:43;;;;;;;10.70;6.93;;;;;;;17.25;79.05;101453.09;5092593;28;20111;-49
2022/09/25 04:01:10;;;;;;;16.25;7.72;;;;;;;17.35;78.66;101457.91;5092925;28;20024;-49
2022/09/25 04:03:38;;;;;;;11.98;6.70;;;;;;;17.37;78.16;101450.38;5092340;28;20024;-48
2022/09/25 04:06:06;;;;;;;14.45;8.00;;;;;;;17.42;78.19;101467.56;5092549;28;20194;-50
2022/09/25 04:08:35;;;;;;;13.25;7.30;;;;;;;17.34;78.57;101467.09;5091776;28;20038;-50
2022/09/25 04:11:02;;;;;;;14.68;7.22;;;;;;;17.29;79.10;101469.69;5080355;28;20047;-48
2022/09/25 04:13:32;;;;;;;14.70;6.95;;;;;;;17.34;78.66;101476.03;5071373;28;20602;-51
2022/09/25 04:16:00;;;;;;;11.18;6.97;;;;;;;17.26;79.01;101472.84;5072384;28;20025;-50
2022/09/25 04:18:30;;;;;;;12.98;7.05;;;;;;;17.12;79.29;101474.97;5082064;28;20024;-50
2022/09/25 04:20:58;;;;;;;12.50;7.53;;;;;;;17.06;79.41;101478.63;5071903;28;20119;-50
2022/09/25 04:23:24;;;;;;;12.05;7.05;;;;;;;17.15;79.08;101480.72;5087226;28;20035;-50
2022/09/25 04:25:51;;;;;;;12.13;7.00;;;;;;;17.12;79.39;101486.63;5092430;28;20027;-48
2022/09/25 04:28:17;;;;;;;16.50;7.57;;;;;;;17.08;79.25;101493.53;5077204;28;20047;-47
2022/09/25 04:30:43;;;;;;;12.32;7.15;;;;;;;17.17;78.56;101488.63;5072778;28;20036;-48
2022/09/25 04:35:55;;;;;;;13.55;6.75;;;;;;;17.05;79.68;101501.31;5078249;28;20158;-51
2022/09/25 04:38:22;;;;;;;12.05;7.07;;;;;;;16.88;80.10;101496.56;5076548;28;20044;-51
2022/09/25 04:40:48;;;;;;;14.18;7.72;;;;;;;16.89;80.14;101508.22;5081713;28;20689;-50
2022/09/25 04:43:14;;;;;;;11.13;6.35;;;;;;;16.91;80.02;101505.28;5078302;28;20040;-50
2022/09/25 04:45:40;;;;;;;13.25;7.63;;;;;;;16.94;80.11;101500.22;5071673;28;20476;-50
2022/09/25 04:48:07;;;;;;;9.38;6.47;;;;;;;16.92;79.71;101502.31;5094353;28;20036;-50
2022/09/25 04:50:34;;;;;;;11.75;7.10;;;;;;;16.82;80.17;101499.38;5092299;28;20021;-50
2022/09/25 04:53:00;;;;;;;16.23;7.28;;;;;;;16.80;80.43;101499.59;5089881;28;20031;-49
2022/09/25 04:55:27;;;;;;;13.70;8.05;;;;;;;16.76;80.95;101497.59;5077990;28;20025;-48
2022/09/25 04:57:55;;;;;;;14.93;8.45;;;;;;;16.75;80.94;101491.34;5087272;28;20107;-50
2022/09/25 05:00:23;;;;;;;16.38;7.93;;;;;;;16.81;80.69;101500.41;5082775;28;20378;-51
2022/09/25 05:02:50;;;;;;;16.40;8.55;;;;;;;16.78;80.75;101503.59;5092295;28;20495;-51
2022/09/25 05:05:17;;;;;;;16.90;7.97;;;;;;;16.85;80.21;101507.03;5084394;28;20504;-51
2022/09/25 05:07:54;;;;;;;14.20;7.80;;;;;;;16.82;80.04;101502.91;5091032;28;20051;-50
2022/09/25 05:10:26;;;;;;;16.92;8.15;;;;;;;16.95;79.64;101501.88;5090424;28;20028;-51
2022/09/25 05:13:05;;;;;;;15.27;7.80;;;;;;;16.78;79.67;101501.72;5099055;28;20101;-50
2022/09/25 05:15:32;;;;;;;17.40;7.85;;;;;;;16.70;80.61;101503.88;5089530;28;20513;-48
2022/09/25 05:18:00;;;;;;;21.02;8.93;;;;;;;16.75;80.25;101506.75;5079474;28;20373;-50
2022/09/25 05:20:27;;;;;;;22.50;8.98;;;;;;;16.79;80.15;101514.19;5074248;28;20043;-50
2022/09/25 05:22:57;;;;;;;19.80;8.63;;;;;;;16.75;80.32;101509.47;5072611;28;20070;-50
2022/09/25 05:25:24;;;;;;;21.13;8.70;;;;;;;16.66;80.67;101513.50;5091807;28;20488;-51
2022/09/25 05:27:57;;;;;;;18.83;8.40;;;;;;;16.68;80.81;101516.81;5085070;28;20370;-51
2022/09/25 05:30:24;;;;;;;19.58;8.82;;;;;;;16.63;81.03;101518.31;5095540;28;20440;-51
2022/09/25 05:32:52;;;;;;;19.60;8.95;;;;;;;16.69;80.89;101518.47;5103679;28;20173;-51
2022/09/25 05:35:20;;;;;;;16.83;8.68;;;;;;;16.71;80.94;101519.06;5105335;28;20039;-51
2022/09/25 05:37:46;;;;;;;21.08;9.30;;;;;;;16.72;80.47;101523.44;5091889;28;20039;-50
2022/09/25 05:40:16;;;;;;;15.60;8.45;;;;;;;16.61;81.07;101530.44;5080547;28;20467;-51
2022/09/25 05:42:43;;;;;;;17.55;8.48;;;;;;;16.73;80.67;101534.03;5094099;28;20043;-50
2022/09/25 05:45:11;;;;;;;22.25;8.75;;;;;;;16.51;81.08;101532.84;5094844;28;20067;-48
2022/09/25 05:47:38;;;;;;;20.02;9.35;;;;;;;16.59;80.99;101532.53;5094073;28;20028;-49
2022/09/25 05:50:05;;;;;;;24.17;10.07;;;;;;;16.74;80.62;101527.56;5094952;28;20031;-50
2022/09/25 05:52:31;;;;;;;22.13;9.00;;;;;;;16.62;80.87;101529.38;5097606;28;20028;-50
2022/09/25 05:54:57;;;;;;;19.55;9.43;;;;;;;16.60;81.18;101524.19;5114069;28;20051;-50
2022/09/25 05:57:24;;;;;;;15.35;8.48;;;;;;;16.70;80.85;101539.03;5092447;28;20491;-48
2022/09/25 05:59:50;;;;;;;16.98;8.82;;;;;;;16.56;81.17;101536.50;5094825;28;20460;-48
2022/09/25 06:02:16;;;;;;;16.88;8.40;;;;;;;16.47;81.70;101535.16;5094576;28;20036;-50
2022/09/25 06:04:42;;;;;;;21.80;9.45;;;;;;;16.58;80.61;101533.56;5109680;28;20052;-48
2022/09/25 06:07:11;;;;;;;21.75;9.18;;;;;;;16.54;81.06;101532.38;5091727;28;20483;-50
2022/09/25 06:09:37;;;;;;;26.02;10.07;;;;;;;16.50;81.59;101526.63;5075230;28;20043;-51
2022/09/25 06:12:04;;;;;;;17.55;8.30;;;;;;;16.50;81.92;101529.31;5090401;28;20031;-51
2022/09/25 06:14:30;;;;;;;21.27;8.75;;;;;;;16.41;82.00;101538.78;5093636;28;20028;-50
2022/09/25 06:16:58;;;;;;;22.80;9.93;;;;;;;16.26;82.91;101531.06;5094926;28;20027;-51
2022/09/25 06:19:24;;;;;;;21.85;9.02;;;;;;;16.41;81.99;101533.38;5094190;28;20032;-50
2022/09/25 06:21:50;;;;;;;19.15;9.60;;;;;;;16.23;82.86;101531.53;5093460;28;20044;-50
2022/09/25 06:24:17;;;;;;;21.98;8.95;;;;;;;16.38;82.29;101523.06;5080775;28;20036;-51
2022/09/25 06:26:43;;;;;;;20.10;9.35;;;;;;;16.42;82.08;101529.63;5078882;28;20032;-51
2022/09/25 06:29:09;;;;;;;23.92;9.52;;;;;;;16.34;82.28;101528.06;5071301;28;20039;-50
2022/09/25 06:31:36;;;;;;;22.88;9.25;;;;;;;16.31;82.56;101528.50;5092668;28;20484;-49
2022/09/25 06:34:03;;;;;;;23.98;9.07;;;;;;;16.19;83.62;101534.91;5091653;28;20027;-49
2022/09/25 06:36:29;;;;;;;22.65;9.45;;;;;;;16.22;83.67;101539.88;5092095;28;20358;-48
2022/09/25 06:38:56;;;;;;;25.90;9.80;;;;;;;16.29;83.31;101540.63;5092990;28;20020;-50
2022/09/25 06:41:23;;;;;;;19.63;8.68;;;;;;;16.35;82.65;101553.22;5113609;28;20494;-51
2022/09/25 06:43:50;;;;;;;25.08;9.68;;;;;;;16.30;82.49;101553.88;5110927;28;20031;-47
2022/09/25 06:46:18;;;;;;;31.85;10.10;;;;;;;16.26;82.82;101552.69;5113102;28;20038;-50
2022/09/25 06:48:56;;;;;;;23.77;9.50;;;;;;;16.23;82.94;101557.72;5097823;28;20042;-50
2022/09/25 06:51:23;;;;;;;26.58;9.35;;;;;;;16.13;83.63;101562.81;5072313;28;20032;-50
2022/09/25 06:53:52;;;;;;;23.42;9.30;;;;;;;16.23;82.88;101558.56;5102704;28;20086;-48
2022/09/25 06:56:19;;;;;;;31.50;10.20;;;;;;;16.22;82.72;101566.88;5092744;28;20024;-48
2022/09/25 06:58:46;;;;;;;35.20;10.13;;;;;;;16.12;83.06;101558.47;5105435;28;20026;-46
2022/09/25 07:01:12;;;;;;;27.20;9.65;;;;;;;16.19;82.78;101556.53;5092189;28;20102;-49
2022/09/25 07:03:45;;;;;;;28.08;10.32;;;;;;;16.20;82.22;101561.69;5108175;28;20028;-49
2022/09/25 07:06:17;;;;;;;31.05;10.27;;;;;;;16.18;82.25;101560.28;5081294;28;20063;-48
2022/09/25 07:08:44;;;;;;;21.45;9.45;;;;;;;16.04;83.21;101555.00;5086255;28;20057;-50
2022/09/25 07:11:18;;;;;;;33.50;10.32;;;;;;;16.03;83.70;101558.75;5092114;28;20028;-49
2022/09/25 07:13:45;;;;;;;24.63;10.27;;;;;;;15.78;85.07;101563.41;5076303;28;20110;-50
2022/09/25 07:16:14;;;;;;;28.65;11.32;;;;;;;15.61;86.37;101559.59;5077048;28;20029;-50
2022/09/25 07:18:40;;;;;;;24.25;11.13;;;;;;;15.66;86.15;101562.50;5093176;28;20028;-48
2022/09/25 07:21:13;;;;;;;26.48;12.32;;;;;;;15.71;86.12;101559.94;4997089;28;2746002;-47
2022/09/25 07:23:40;;;;;;;23.77;12.15;;;;;;;15.76;86.12;101552.00;5097472;28;20060;-47
2022/09/25 07:26:15;;;;;;;33.85;12.63;;;;;;;15.73;86.61;101563.25;5092592;28;20111;-47
2022/09/25 07:28:42;;;;;;;23.92;11.95;;;;;;;15.66;86.89;101557.91;5091517;28;20039;-47
2022/09/25 07:31:14;;;;;;;31.77;12.55;;;;;;;15.60;87.42;101550.66;5088181;28;20036;-47
2022/09/25 07:33:40;;;;;;;26.52;11.75;;;;;;;15.57;87.67;101548.41;5098022;28;20020;-47
2022/09/25 07:36:08;;;;;;;29.83;12.35;;;;;;;15.69;86.74;101546.66;5100504;28;20426;-46
2022/09/25 07:38:35;;;;;;;25.27;12.35;;;;;;;15.65;86.98;101550.84;5102535;28;20035;-50
2022/09/25 07:41:06;;;;;;;24.25;11.45;;;;;;;15.65;87.01;101542.75;5093127;28;20093;-49
2022/09/25 07:43:33;;;;;;;22.27;11.82;;;;;;;15.66;86.62;101541.72;5098919;28;20031;-47
2022/09/25 07:46:00;;;;;;;23.40;11.20;;;;;;;15.70;86.60;101555.59;5101594;28;20404;-49
2022/09/25 07:48:29;;;;;;;21.45;11.07;;;;;;;15.81;85.41;101549.44;5090206;28;20511;-49
2022/09/25 07:51:02;;;;;;;28.92;10.65;;;;;;;15.90;84.89;101547.28;5093072;28;20055;-49
2022/09/25 07:53:28;;;;;;;22.52;10.70;;;;;;;16.00;84.61;101543.03;5091346;28;20024;-50
2022/09/25 07:55:59;;;;;;;20.00;11.30;;;;;;;15.92;84.28;101546.00;5084518;28;20329;-49
2022/09/25 07:58:27;;;;;;;21.50;10.25;;;;;;;15.79;84.76;101551.56;5092686;28;20028;-47
2022/09/25 08:00:58;;;;;;;24.20;10.70;;;;;;;15.82;84.66;101551.94;5101881;28;20491;-48
2022/09/25 08:03:24;;;;;;;21.20;10.85;;;;;;;15.65;85.39;101550.03;5104060;28;20129;-48
2022/09/25 08:06:08;;;;;;;19.65;10.48;;;;;;;15.71;85.03;101549.13;5090278;28;20028;-47
2022/09/25 08:08:34;;;;;;;21.25;10.77;;;;;;;15.74;84.79;101538.72;5091738;28;20376;-47
2022/09/25 08:11:10;;;;;;;18.30;9.45;;;;;;;15.71;84.42;101549.97;5089391;28;20031;-48
2022/09/25 08:13:38;;;;;;;;;;;;;;;15.66;84.83;101552.53;5093087;28;20035;-49
2022/09/25 08:16:11;;;;;;;19.42;10.25;;;;;;;15.72;84.89;101545.41;5104701;28;19919;-46
2022/09/25 08:18:41;;;;;;;15.82;9.65;;;;;;;15.58;86.02;101545.47;5102122;28;20032;-47
2022/09/25 08:21:09;;;;;;;16.42;8.75;;;;;;;15.81;84.73;101544.06;5090048;28;20123;-47
2022/09/25 08:23:36;;;;;;;12.48;7.85;;;;;;;15.53;85.16;101548.03;5082986;28;20032;-48
2022/09/25 08:26:02;;;;;;;19.38;8.95;;;;;;;15.59;85.25;101547.13;5089669;28;20424;-48
2022/09/25 08:28:28;;;;;;;15.23;9.15;;;;;;;15.50;86.06;101547.66;5097221;28;20124;-49
2022/09/25 08:30:58;;;;;;;15.20;8.45;;;;;;;15.59;85.20;101552.53;5083369;28;20035;-48
2022/09/25 08:33:25;;;;;;;11.30;7.80;;;;;;;15.54;84.68;101544.28;5091047;28;20045;-49
2022/09/25 08:35:59;;;;;;;12.15;6.47;;;;;;;15.46;85.29;101544.56;5091532;28;20119;-47
2022/09/25 08:38:27;;;;;;;15.20;7.70;;;;;;;15.50;84.82;101545.78;5091000;28;20069;-50
2022/09/25 08:41:05;;;;;;;15.98;8.27;;;;;;;15.42;86.03;101540.66;5089131;28;20137;-47
2022/09/25 08:43:39;;;;;;;14.15;7.68;;;;;;;15.40;85.63;101544.63;5103866;28;20438;-48
2022/09/25 08:49:10;;;;;;;14.45;7.45;;;;;;;15.42;85.27;101551.44;5112539;28;20077;-50
2022/09/25 08:51:42;;;;;;;11.75;7.22;;;;;;;15.41;85.78;101539.00;5104210;28;20047;-51
2022/09/25 08:54:19;;;;;;;10.32;6.88;;;;;;;15.49;85.59;101545.97;5089037;28;20103;-50
2022/09/25 08:56:51;;;;;;;10.60;6.60;;;;;;;15.43;85.65;101544.16;5090580;28;20040;-48
2022/09/25 08:59:28;;;;;;;10.38;6.93;;;;;;;15.40;85.46;101545.44;5097256;28;20119;-50
2022/09/25 09:02:09;;;;;;;10.25;6.85;;;;;;;15.39;85.66;101540.28;5092948;28;20362;-50
2022/09/25 09:04:42;;;;;;;13.25;7.03;;;;;;;15.46;85.69;101541.88;5089853;28;20028;-51
2022/09/25 09:07:12;;;;;;;13.38;7.40;;;;;;;15.41;85.85;101544.41;5080109;28;20469;-50
2022/09/25 09:09:45;;;;;;;8.65;6.57;;;;;;;15.51;85.39;101541.22;5091897;28;20027;-51
2022/09/25 09:12:15;;;;;;;9.70;6.10;;;;;;;15.48;85.56;101547.03;5092082;28;20020;-47
2022/09/25 09:14:48;;;;;;;9.57;6.22;;;;;;;15.47;85.59;101540.81;5071102;28;20033;-47
2022/09/25 09:17:26;;;;;;;6.50;5.15;;;;;;;15.52;85.03;101542.84;5082001;28;20028;-47
2022/09/25 09:19:59;;;;;;;10.07;6.03;;;;;;;15.49;85.24;101551.38;5090525;28;20067;-48
2022/09/25 09:22:36;;;;;;;8.80;5.88;;;;;;;15.53;85.63;101547.19;5091557;28;20028;-50
2022/09/25 09:25:16;;;;;;;10.32;5.95;;;;;;;15.51;85.78;101544.72;5087315;28;20028;-50
2022/09/25 09:28:06;;;;;;;9.65;6.13;;;;;;;15.63;85.39;101544.84;5090549;28;20040;-48
2022/09/25 09:30:51;;;;;;;10.55;6.53;;;;;;;15.48;86.06;101542.47;5071418;28;20081;-50
2022/09/25 09:33:22;;;;;;;9.87;5.90;;;;;;;15.43;85.90;101545.00;5085970;28;20028;-51
2022/09/25 09:36:28;;;;;;;9.77;5.38;;;;;;;15.44;85.28;101545.84;5090715;28;20036;-49
2022/09/25 09:39:18;;;;;;;7.70;4.78;;;;;;;15.49;84.86;101544.13;5091474;28;20028;-48
2022/09/25 09:42:16;;;;;;;6.32;4.65;;;;;;;15.47;85.25;101542.69;5085019;28;20036;-48
2022/09/25 09:45:00;;;;;;;6.50;4.80;;;;;;;15.40;85.62;101541.94;5073158;28;20039;-48
2022/09/25 09:47:53;;;;;;;6.32;4.93;;;;;;;15.52;85.55;101545.56;5091209;28;20036;-47
2022/09/25 09:50:43;;;;;;;8.05;4.50;;;;;;;15.52;85.46;101540.16;5087580;28;20070;-50
2022/09/25 09:53:44;;;;;;;6.97;5.03;;;;;;;15.52;85.04;101538.28;5080943;28;20388;-50
2022/09/25 09:56:13;;;;;;;7.43;4.88;;;;;;;15.47;85.50;101540.00;5070757;28;20035;-47
2022/09/25 09:58:43;;;;;;;5.30;4.45;;;;;;;15.50;85.43;101542.25;5088431;28;20032;-47
2022/09/25 10:01:12;;;;;;;5.63;4.45;;;;;;;15.55;85.32;101545.94;5089219;28;20024;-51
2022/09/25 10:03:40;;;;;;;5.57;4.50;;;;;;;15.55;85.00;101543.25;5088697;28;20111;-50
2022/09/25 10:06:10;;;;;;;5.25;4.30;;;;;;;15.65;84.91;101539.22;5070973;28;20033;-58
2022/09/25 10:08:37;;;;;;;7.30;4.95;;;;;;;15.66;84.49;101543.59;5080411;28;20034;-51
2022/09/25 10:11:13;;;;;;;6.05;5.10;;;;;;;15.67;84.79;101540.69;5089877;28;20510;-50
2022/09/25 10:13:40;;;;;;;7.03;5.28;;;;;;;15.67;84.96;101542.56;5093339;28;20031;-50
2022/09/25 10:16:10;;;;;;;7.13;4.53;;;;;;;15.68;85.06;101549.59;5115062;28;20383;-48
2022/09/25 10:19:01;;;;;;;4.63;4.13;;;;;;;15.65;84.86;101534.66;5101177;28;20031;-51
2022/09/25 10:21:41;;;;;;;5.00;4.13;;;;;;;15.66;84.63;101539.03;5114801;28;20046;-50
2022/09/25 10:24:07;;;;;;;5.35;4.70;;;;;;;15.65;84.68;101533.84;5097652;28;20333;-50
2022/09/25 10:26:39;;;;;;;6.15;4.22;;;;;;;15.65;84.88;101534.66;5093922;28;20468;-50
2022/09/25 10:29:25;;;;;;;5.55;4.55;;;;;;;15.53;85.36;101539.94;5102908;28;20472;-50
2022/09/25 10:32:04;;;;;;;4.95;4.40;;;;;;;15.62;85.12;101536.97;5095635;28;20547;-50
2022/09/25 10:34:31;;;;;;;5.65;4.35;;;;;;;15.58;84.35;101534.69;5114294;28;20036;-51
2022/09/25 10:36:57;;;;;;;6.45;4.78;;;;;;;15.53;84.95;101541.81;5112283;28;20038;-48
2022/09/25 10:39:31;;;;;;;6.40;4.72;;;;;;;15.44;85.61;101535.88;5095110;28;20476;-50
2022/09/25 10:41:58;;;;;;;7.20;5.28;;;;;;;15.57;85.07;101537.63;5093308;28;20035;-47
2022/09/25 10:44:34;;;;;;;7.32;4.97;;;;;;;15.65;85.16;101533.84;5101417;28;20059;-48
2022/09/25 10:50:20;;;;;;;6.65;5.20;;;;;;;15.53;85.52;101523.75;5091807;28;20047;-49
2022/09/25 10:52:52;;;;;;;9.60;5.75;;;;;;;15.61;85.74;101527.22;5092532;28;20028;-49
2022/09/25 10:55:27;;;;;;;8.68;5.63;;;;;;;15.66;85.40;101530.94;5089932;28;20032;-48
2022/09/25 10:58:12;;;;;;;9.07;5.15;;;;;;;15.76;84.53;101528.53;5102605;28;20391;-50
2022/09/25 11:03:20;;;;;;;;;;;;;;;15.77;84.31;101521.28;5940225;22;20039;-43
2022/09/25 11:05:57;;;;;;;8.55;5.50;;;;;;;15.66;84.36;101527.41;4992844;28;19932;-48
2022/09/25 11:08:29;;;;;;;7.05;5.82;;;;;;;15.68;83.97;101517.22;4988557;28;20117;-44
2022/09/25 11:10:57;;;;;;;7.45;5.97;;;;;;;15.66;83.92;101532.81;5008343;28;20030;-43
2022/09/25 11:13:47;;;;;;;9.15;5.80;;;;;;;15.68;83.78;101536.09;4983900;28;20028;-43
2022/09/25 11:16:13;;;;;;;10.80;6.60;;;;;;;15.64;83.78;101524.91;5006150;28;20026;-44
2022/09/25 11:18:43;;;;;;;10.82;7.13;;;;;;;15.66;83.66;101535.50;4979707;28;20494;-43
2022/09/25 11:21:25;;;;;;;10.40;7.10;;;;;;;15.55;84.17;101529.75;4977983;28;20042;-44
2022/09/25 11:24:12;;;;;;;11.95;6.57;;;;;;;15.65;83.83;101528.44;4989387;28;20030;-44
2022/09/25 11:27:01;;;;;;;8.90;6.93;;;;;;;15.67;83.79;101523.66;4974165;28;20038;-43
2022/09/25 11:29:53;;;;;;;12.05;6.80;;;;;;;15.74;83.68;101519.00;4979101;28;20027;-44
2022/09/25 11:32:43;;;;;;;10.50;6.28;;;;;;;15.86;82.78;101514.50;4994209;28;20015;-44
2022/09/25 11:35:59;;;;;;;9.52;6.10;;;;;;;15.90;82.85;101514.91;4984287;28;20207;-44
2022/09/25 11:41:47;;;;;;;8.77;5.95;;;;;;;15.70;83.52;101509.69;4985888;28;20041;-44
2022/09/25 11:44:30;;;;;;;14.68;6.97;;;;;;;15.78;82.92;101522.91;4983183;28;20072;-43
2022/09/25 11:47:17;;;;;;;8.32;5.55;;;;;;;15.70;82.67;101515.91;4974819;28;20422;-43
2022/09/25 11:49:50;;;;;;;9.05;6.25;;;;;;;15.81;82.58;101511.66;4974240;28;20041;-44
2022/09/25 11:52:42;;;;;;;8.57;6.40;;;;;;;15.68;82.78;101514.50;4974203;28;20026;-44
2022/09/25 11:55:20;;;;;;;8.05;6.53;;;;;;;15.69;82.74;101516.16;4973704;28;20403;-43
2022/09/25 11:58:20;;;;;;;9.90;6.18;;;;;;;15.90;82.05;101515.72;4975877;28;20045;-43
2022/09/25 12:01:13;;;;;;;9.68;6.95;;;;;;;15.76;82.47;101525.00;4973561;28;20375;-44